sensor_id;sensor_type;location;lat;lon;timestamp;P1;durP1;ratioP1;P2;durP2;ratioP2
19903;SDS011;10114;50.970;4.962;2023-05-31T00:01:11;11.15;;;5.68;;
19903;SDS011;10114;50.970;4.962;2023-05-31T00:03:38;10.82;;;6.35;;
19903;SDS011;10114;50.970;4.962;2023-05-31T00:06:11;13.00;;;6.15;;
19903;SDS011;10114;50.970;4.962;2023-05-31T00:08:37;9.52;;;5.82;;
19903;SDS011;10114;50.970;4.962;2023-05-31T00:11:04;10.45;;;6.13;;
19903;SDS011;10114;50.970;4.962;2023-05-31T00:13:30;8.60;;;5.38;;
19903;SDS011;10114;50.970;4.962;2023-05-31T00:15:56;9.43;;;5.88;;
19903;SDS011;10114;50.970;4.962;2023-05-31T00:18:22;10.95;;;6.15;;
19903;SDS011;10114;50.970;4.962;2023-05-31T00:20:48;12.38;;;6.32;;
19903;SDS011;10114;50.970;4.962;2023-05-31T00:23:14;11.73;;;5.90;;
19903;SDS011;10114;50.970;4.962;2023-05-31T00:25:40;10.68;;;5.90;;
19903;SDS011;10114;50.970;4.962;2023-05-31T00:28:06;9.73;;;6.05;;
19903;SDS011;10114;50.970;4.962;2023-05-31T00:30:32;11.25;;;6.15;;
19903;SDS011;10114;50.970;4.962;2023-05-31T00:32:58;12.38;;;6.45;;
19903;SDS011;10114;50.970;4.962;2023-05-31T00:35:24;11.18;;;6.97;;
19903;SDS011;10114;50.970;4.962;2023-05-31T00:37:50;11.93;;;6.63;;
19903;SDS011;10114;50.970;4.962;2023-05-31T00:40:16;9.93;;;6.05;;
19903;SDS011;10114;50.970;4.962;2023-05-31T00:42:42;10.70;;;6.40;;
19903;SDS011;10114;50.970;4.962;2023-05-31T00:45:08;11.43;;;6.72;;
19903;SDS011;10114;50.970;4.962;2023-05-31T00:47:34;13.48;;;6.82;;
19903;SDS011;10114;50.970;4.962;2023-05-31T00:50:01;14.25;;;7.57;;
19903;SDS011;10114;50.970;4.962;2023-05-31T00:52:27;12.60;;;6.70;;
19903;SDS011;10114;50.970;4.962;2023-05-31T00:54:53;15.98;;;6.78;;
19903;SDS011;10114;50.970;4.962;2023-05-31T00:57:20;11.52;;;6.25;;
19903;SDS011;10114;50.970;4.962;2023-05-31T00:59:46;11.55;;;6.75;;
19903;SDS011;10114;50.970;4.962;2023-05-31T01:02:12;10.90;;;6.65;;
19903;SDS011;10114;50.970;4.962;2023-05-31T01:04:39;9.70;;;6.35;;
19903;SDS011;10114;50.970;4.962;2023-05-31T01:07:06;10.45;;;6.47;;
19903;SDS011;10114;50.970;4.962;2023-05-31T01:09:34;11.13;;;6.88;;
19903;SDS011;10114;50.970;4.962;2023-05-31T01:17:22;12.75;;;7.07;;
19903;SDS011;10114;50.970;4.962;2023-05-31T01:19:55;13.23;;;7.43;;
19903;SDS011;10114;50.970;4.962;2023-05-31T01:22:33;12.40;;;6.75;;
19903;SDS011;10114;50.970;4.962;2023-05-31T01:25:10;11.95;;;7.10;;
19903;SDS011;10114;50.970;4.962;2023-05-31T01:27:39;14.80;;;7.13;;
19903;SDS011;10114;50.970;4.962;2023-05-31T01:30:07;16.45;;;7.65;;
19903;SDS011;10114;50.970;4.962;2023-05-31T01:32:34;15.38;;;7.57;;
19903;SDS011;10114;50.970;4.962;2023-05-31T01:35:01;12.52;;;7.32;;
19903;SDS011;10114;50.970;4.962;2023-05-31T01:37:27;15.43;;;7.50;;
19903;SDS011;10114;50.970;4.962;2023-05-31T01:39:53;14.05;;;7.07;;
19903;SDS011;10114;50.970;4.962;2023-05-31T01:42:20;16.70;;;7.78;;
19903;SDS011;10114;50.970;4.962;2023-05-31T01:44:47;11.27;;;7.63;;
19903;SDS011;10114;50.970;4.962;2023-05-31T01:47:13;12.65;;;7.13;;
19903;SDS011;10114;50.970;4.962;2023-05-31T01:49:40;14.20;;;7.82;;
19903;SDS011;10114;50.970;4.962;2023-05-31T01:52:09;13.38;;;7.95;;
19903;SDS011;10114;50.970;4.962;2023-05-31T01:54:36;13.30;;;8.50;;
19903;SDS011;10114;50.970;4.962;2023-05-31T01:57:03;14.77;;;8.15;;
19903;SDS011;10114;50.970;4.962;2023-05-31T01:59:31;17.33;;;8.98;;
19903;SDS011;10114;50.970;4.962;2023-05-31T02:01:58;15.48;;;9.23;;
19903;SDS011;10114;50.970;4.962;2023-05-31T02:04:24;12.48;;;7.97;;
19903;SDS011;10114;50.970;4.962;2023-05-31T02:06:50;18.08;;;9.35;;
19903;SDS011;10114;50.970;4.962;2023-05-31T02:09:17;14.38;;;9.25;;
19903;SDS011;10114;50.970;4.962;2023-05-31T02:11:43;15.32;;;9.15;;
19903;SDS011;10114;50.970;4.962;2023-05-31T02:14:09;14.52;;;8.57;;
19903;SDS011;10114;50.970;4.962;2023-05-31T02:16:35;14.43;;;8.18;;
19903;SDS011;10114;50.970;4.962;2023-05-31T02:19:01;14.35;;;8.82;;
19903;SDS011;10114;50.970;4.962;2023-05-31T02:21:33;15.55;;;8.73;;
19903;SDS011;10114;50.970;4.962;2023-05-31T02:24:02;19.65;;;9.25;;
19903;SDS011;10114;50.970;4.962;2023-05-31T02:26:28;15.35;;;9.30;;
19903;SDS011;10114;50.970;4.962;2023-05-31T02:28:54;15.77;;;9.25;;
19903;SDS011;10114;50.970;4.962;2023-05-31T02:31:20;18.10;;;9.77;;
19903;SDS011;10114;50.970;4.962;2023-05-31T02:33:47;17.15;;;9.60;;
19903;SDS011;10114;50.970;4.962;2023-05-31T02:36:13;15.73;;;9.15;;
19903;SDS011;10114;50.970;4.962;2023-05-31T02:38:39;19.05;;;10.80;;
19903;SDS011;10114;50.970;4.962;2023-05-31T02:41:05;15.50;;;9.70;;
19903;SDS011;10114;50.970;4.962;2023-05-31T02:43:31;19.13;;;10.50;;
19903;SDS011;10114;50.970;4.962;2023-05-31T02:45:57;16.50;;;9.93;;
19903;SDS011;10114;50.970;4.962;2023-05-31T02:48:26;16.45;;;9.25;;
19903;SDS011;10114;50.970;4.962;2023-05-31T02:50:53;16.58;;;9.75;;
19903;SDS011;10114;50.970;4.962;2023-05-31T02:53:18;16.25;;;10.50;;
19903;SDS011;10114;50.970;4.962;2023-05-31T02:55:45;17.08;;;10.23;;
19903;SDS011;10114;50.970;4.962;2023-05-31T02:58:11;18.58;;;9.88;;
19903;SDS011;10114;50.970;4.962;2023-05-31T03:00:39;21.50;;;11.23;;
19903;SDS011;10114;50.970;4.962;2023-05-31T03:03:05;17.33;;;9.85;;
19903;SDS011;10114;50.970;4.962;2023-05-31T03:05:31;20.23;;;11.00;;
19903;SDS011;10114;50.970;4.962;2023-05-31T03:07:58;18.45;;;10.15;;
19903;SDS011;10114;50.970;4.962;2023-05-31T03:10:24;18.85;;;11.02;;
19903;SDS011;10114;50.970;4.962;2023-05-31T03:12:51;17.17;;;10.52;;
19903;SDS011;10114;50.970;4.962;2023-05-31T03:15:17;17.65;;;10.93;;
19903;SDS011;10114;50.970;4.962;2023-05-31T03:17:43;18.08;;;11.18;;
19903;SDS011;10114;50.970;4.962;2023-05-31T03:20:09;21.65;;;11.70;;
19903;SDS011;10114;50.970;4.962;2023-05-31T03:22:35;18.83;;;10.68;;
19903;SDS011;10114;50.970;4.962;2023-05-31T03:25:02;24.63;;;12.38;;
19903;SDS011;10114;50.970;4.962;2023-05-31T03:27:29;18.73;;;11.43;;
19903;SDS011;10114;50.970;4.962;2023-05-31T03:29:55;24.15;;;12.82;;
19903;SDS011;10114;50.970;4.962;2023-05-31T03:32:21;22.60;;;12.35;;
19903;SDS011;10114;50.970;4.962;2023-05-31T03:34:47;23.15;;;12.68;;
19903;SDS011;10114;50.970;4.962;2023-05-31T03:37:13;20.08;;;12.10;;
19903;SDS011;10114;50.970;4.962;2023-05-31T03:39:39;21.58;;;12.30;;
19903;SDS011;10114;50.970;4.962;2023-05-31T03:42:05;22.52;;;11.93;;
19903;SDS011;10114;50.970;4.962;2023-05-31T03:44:31;22.52;;;13.25;;
19903;SDS011;10114;50.970;4.962;2023-05-31T03:46:57;22.92;;;14.10;;
19903;SDS011;10114;50.970;4.962;2023-05-31T03:49:23;22.02;;;12.70;;
19903;SDS011;10114;50.970;4.962;2023-05-31T03:51:50;21.25;;;13.15;;
19903;SDS011;10114;50.970;4.962;2023-05-31T03:54:16;23.33;;;13.70;;
19903;SDS011;10114;50.970;4.962;2023-05-31T03:56:42;19.75;;;12.73;;
19903;SDS011;10114;50.970;4.962;2023-05-31T03:59:08;21.30;;;12.30;;
19903;SDS011;10114;50.970;4.962;2023-05-31T04:01:34;21.85;;;13.02;;
19903;SDS011;10114;50.970;4.962;2023-05-31T04:04:00;24.85;;;13.07;;
19903;SDS011;10114;50.970;4.962;2023-05-31T04:06:26;20.60;;;12.50;;
19903;SDS011;10114;50.970;4.962;2023-05-31T04:08:53;20.10;;;12.43;;
19903;SDS011;10114;50.970;4.962;2023-05-31T04:11:20;20.88;;;12.80;;
19903;SDS011;10114;50.970;4.962;2023-05-31T04:13:46;20.17;;;12.02;;
19903;SDS011;10114;50.970;4.962;2023-05-31T04:16:12;21.90;;;11.70;;
19903;SDS011;10114;50.970;4.962;2023-05-31T04:18:38;22.98;;;12.30;;
19903;SDS011;10114;50.970;4.962;2023-05-31T04:21:04;22.55;;;13.20;;
19903;SDS011;10114;50.970;4.962;2023-05-31T04:23:32;18.85;;;11.43;;
19903;SDS011;10114;50.970;4.962;2023-05-31T04:26:00;17.92;;;10.95;;
19903;SDS011;10114;50.970;4.962;2023-05-31T04:28:27;19.23;;;10.55;;
19903;SDS011;10114;50.970;4.962;2023-05-31T04:30:55;19.25;;;10.98;;
19903;SDS011;10114;50.970;4.962;2023-05-31T04:33:22;19.10;;;10.50;;
19903;SDS011;10114;50.970;4.962;2023-05-31T04:35:48;18.15;;;10.73;;
19903;SDS011;10114;50.970;4.962;2023-05-31T04:38:15;20.27;;;10.73;;
19903;SDS011;10114;50.970;4.962;2023-05-31T04:40:43;18.65;;;10.73;;
19903;SDS011;10114;50.970;4.962;2023-05-31T04:43:09;19.38;;;10.30;;
19903;SDS011;10114;50.970;4.962;2023-05-31T04:45:35;18.00;;;10.40;;
19903;SDS011;10114;50.970;4.962;2023-05-31T04:48:01;20.05;;;9.88;;
19903;SDS011;10114;50.970;4.962;2023-05-31T04:50:27;15.88;;;10.18;;
19903;SDS011;10114;50.970;4.962;2023-05-31T04:52:53;18.67;;;10.90;;
19903;SDS011;10114;50.970;4.962;2023-05-31T04:55:19;18.00;;;10.02;;
19903;SDS011;10114;50.970;4.962;2023-05-31T04:57:45;14.90;;;9.32;;
19903;SDS011;10114;50.970;4.962;2023-05-31T05:00:12;14.95;;;9.27;;
19903;SDS011;10114;50.970;4.962;2023-05-31T05:02:41;15.30;;;10.18;;
19903;SDS011;10114;50.970;4.962;2023-05-31T05:05:08;19.00;;;11.70;;
19903;SDS011;10114;50.970;4.962;2023-05-31T05:07:34;16.90;;;10.07;;
19903;SDS011;10114;50.970;4.962;2023-05-31T05:10:00;15.88;;;9.13;;
19903;SDS011;10114;50.970;4.962;2023-05-31T05:12:27;17.45;;;9.18;;
19903;SDS011;10114;50.970;4.962;2023-05-31T05:14:53;17.30;;;9.20;;
19903;SDS011;10114;50.970;4.962;2023-05-31T05:17:19;14.77;;;9.13;;
19903;SDS011;10114;50.970;4.962;2023-05-31T05:19:45;17.33;;;8.75;;
19903;SDS011;10114;50.970;4.962;2023-05-31T05:22:11;18.42;;;9.25;;
19903;SDS011;10114;50.970;4.962;2023-05-31T05:24:38;20.42;;;9.85;;
19903;SDS011;10114;50.970;4.962;2023-05-31T05:27:04;16.77;;;9.55;;
19903;SDS011;10114;50.970;4.962;2023-05-31T05:29:31;19.30;;;8.77;;
19903;SDS011;10114;50.970;4.962;2023-05-31T05:31:57;18.40;;;8.55;;
19903;SDS011;10114;50.970;4.962;2023-05-31T05:34:23;18.77;;;9.70;;
19903;SDS011;10114;50.970;4.962;2023-05-31T05:36:49;19.58;;;10.00;;
19903;SDS011;10114;50.970;4.962;2023-05-31T05:39:17;16.33;;;10.65;;
19903;SDS011;10114;50.970;4.962;2023-05-31T05:41:43;15.38;;;9.50;;
19903;SDS011;10114;50.970;4.962;2023-05-31T05:44:09;20.10;;;10.45;;
19903;SDS011;10114;50.970;4.962;2023-05-31T05:46:35;17.25;;;9.98;;
19903;SDS011;10114;50.970;4.962;2023-05-31T05:49:01;15.40;;;9.15;;
19903;SDS011;10114;50.970;4.962;2023-05-31T05:51:27;16.65;;;10.82;;
19903;SDS011;10114;50.970;4.962;2023-05-31T05:53:53;18.38;;;8.93;;
19903;SDS011;10114;50.970;4.962;2023-05-31T05:56:19;22.02;;;11.23;;
19903;SDS011;10114;50.970;4.962;2023-05-31T05:58:46;20.20;;;10.10;;
19903;SDS011;10114;50.970;4.962;2023-05-31T06:01:12;20.05;;;11.07;;
19903;SDS011;10114;50.970;4.962;2023-05-31T06:03:43;21.55;;;10.45;;
19903;SDS011;10114;50.970;4.962;2023-05-31T06:06:09;19.50;;;10.40;;
19903;SDS011;10114;50.970;4.962;2023-05-31T06:08:35;20.98;;;10.63;;
19903;SDS011;10114;50.970;4.962;2023-05-31T06:11:01;16.63;;;9.93;;
19903;SDS011;10114;50.970;4.962;2023-05-31T06:13:28;17.13;;;9.80;;
19903;SDS011;10114;50.970;4.962;2023-05-31T06:15:54;19.05;;;11.20;;
19903;SDS011;10114;50.970;4.962;2023-05-31T06:18:20;17.00;;;9.40;;
19903;SDS011;10114;50.970;4.962;2023-05-31T06:20:47;15.85;;;9.13;;
19903;SDS011;10114;50.970;4.962;2023-05-31T06:23:13;22.67;;;10.35;;
19903;SDS011;10114;50.970;4.962;2023-05-31T06:25:39;17.33;;;9.50;;
19903;SDS011;10114;50.970;4.962;2023-05-31T06:28:06;19.88;;;10.40;;
19903;SDS011;10114;50.970;4.962;2023-05-31T06:30:32;17.33;;;10.40;;
19903;SDS011;10114;50.970;4.962;2023-05-31T06:32:58;23.85;;;11.00;;
19903;SDS011;10114;50.970;4.962;2023-05-31T06:35:24;19.73;;;9.57;;
19903;SDS011;10114;50.970;4.962;2023-05-31T06:37:50;20.85;;;9.80;;
19903;SDS011;10114;50.970;4.962;2023-05-31T06:40:17;17.70;;;8.73;;
19903;SDS011;10114;50.970;4.962;2023-05-31T06:42:43;18.05;;;10.00;;
19903;SDS011;10114;50.970;4.962;2023-05-31T06:45:09;19.02;;;9.55;;
19903;SDS011;10114;50.970;4.962;2023-05-31T06:47:35;18.83;;;9.13;;
19903;SDS011;10114;50.970;4.962;2023-05-31T06:50:03;20.02;;;9.40;;
19903;SDS011;10114;50.970;4.962;2023-05-31T06:52:29;15.88;;;9.38;;
19903;SDS011;10114;50.970;4.962;2023-05-31T06:54:55;25.42;;;9.73;;
19903;SDS011;10114;50.970;4.962;2023-05-31T06:57:21;17.23;;;8.93;;
19903;SDS011;10114;50.970;4.962;2023-05-31T06:59:47;19.70;;;10.10;;
19903;SDS011;10114;50.970;4.962;2023-05-31T07:02:13;16.73;;;8.57;;
19903;SDS011;10114;50.970;4.962;2023-05-31T07:04:39;16.05;;;8.68;;
19903;SDS011;10114;50.970;4.962;2023-05-31T07:07:06;19.27;;;9.32;;
19903;SDS011;10114;50.970;4.962;2023-05-31T07:09:34;19.10;;;8.93;;
19903;SDS011;10114;50.970;4.962;2023-05-31T07:12:00;15.32;;;8.63;;
19903;SDS011;10114;50.970;4.962;2023-05-31T07:14:28;20.20;;;9.25;;
19903;SDS011;10114;50.970;4.962;2023-05-31T07:16:54;16.70;;;8.82;;
19903;SDS011;10114;50.970;4.962;2023-05-31T07:19:20;18.35;;;8.32;;
19903;SDS011;10114;50.970;4.962;2023-05-31T07:21:46;19.48;;;8.20;;
19903;SDS011;10114;50.970;4.962;2023-05-31T07:24:12;16.98;;;8.30;;
19903;SDS011;10114;50.970;4.962;2023-05-31T07:26:38;18.60;;;8.85;;
19903;SDS011;10114;50.970;4.962;2023-05-31T07:29:04;20.30;;;8.93;;
19903;SDS011;10114;50.970;4.962;2023-05-31T07:31:30;17.45;;;8.15;;
19903;SDS011;10114;50.970;4.962;2023-05-31T07:33:56;22.25;;;8.50;;
19903;SDS011;10114;50.970;4.962;2023-05-31T07:36:22;14.93;;;8.55;;
19903;SDS011;10114;50.970;4.962;2023-05-31T07:38:52;16.77;;;8.18;;
19903;SDS011;10114;50.970;4.962;2023-05-31T07:41:18;16.25;;;8.80;;
19903;SDS011;10114;50.970;4.962;2023-05-31T07:43:44;19.25;;;9.07;;
19903;SDS011;10114;50.970;4.962;2023-05-31T07:46:11;19.33;;;8.52;;
19903;SDS011;10114;50.970;4.962;2023-05-31T07:48:37;17.65;;;8.32;;
19903;SDS011;10114;50.970;4.962;2023-05-31T07:51:03;17.73;;;8.30;;
19903;SDS011;10114;50.970;4.962;2023-05-31T07:53:30;18.15;;;7.18;;
19903;SDS011;10114;50.970;4.962;2023-05-31T07:55:56;16.80;;;8.25;;
19903;SDS011;10114;50.970;4.962;2023-05-31T07:58:22;17.00;;;7.82;;
19903;SDS011;10114;50.970;4.962;2023-05-31T08:00:49;21.42;;;8.45;;
19903;SDS011;10114;50.970;4.962;2023-05-31T08:03:17;16.55;;;7.30;;
19903;SDS011;10114;50.970;4.962;2023-05-31T08:05:44;15.23;;;8.05;;
19903;SDS011;10114;50.970;4.962;2023-05-31T08:08:10;16.05;;;7.72;;
19903;SDS011;10114;50.970;4.962;2023-05-31T08:10:38;18.60;;;7.45;;
19903;SDS011;10114;50.970;4.962;2023-05-31T08:13:04;14.23;;;6.68;;
19903;SDS011;10114;50.970;4.962;2023-05-31T08:15:30;14.75;;;7.05;;
19903;SDS011;10114;50.970;4.962;2023-05-31T08:17:56;15.43;;;7.38;;
19903;SDS011;10114;50.970;4.962;2023-05-31T08:20:23;14.60;;;6.97;;
19903;SDS011;10114;50.970;4.962;2023-05-31T08:22:51;13.98;;;7.20;;
19903;SDS011;10114;50.970;4.962;2023-05-31T08:25:18;17.02;;;7.30;;
19903;SDS011;10114;50.970;4.962;2023-05-31T08:27:44;12.55;;;7.00;;
19903;SDS011;10114;50.970;4.962;2023-05-31T08:30:11;19.17;;;8.20;;
19903;SDS011;10114;50.970;4.962;2023-05-31T08:32:37;13.30;;;7.03;;
19903;SDS011;10114;50.970;4.962;2023-05-31T08:35:04;14.02;;;6.57;;
19903;SDS011;10114;50.970;4.962;2023-05-31T08:37:37;13.75;;;6.95;;
19903;SDS011;10114;50.970;4.962;2023-05-31T08:40:04;14.88;;;7.20;;
19903;SDS011;10114;50.970;4.962;2023-05-31T08:42:43;14.75;;;6.22;;
19903;SDS011;10114;50.970;4.962;2023-05-31T08:45:10;14.65;;;6.55;;
19903;SDS011;10114;50.970;4.962;2023-05-31T08:47:42;12.95;;;6.70;;
19903;SDS011;10114;50.970;4.962;2023-05-31T08:50:10;16.08;;;6.28;;
19903;SDS011;10114;50.970;4.962;2023-05-31T08:52:36;10.90;;;5.60;;
19903;SDS011;10114;50.970;4.962;2023-05-31T08:55:02;14.40;;;6.20;;
19903;SDS011;10114;50.970;4.962;2023-05-31T08:57:29;14.23;;;5.97;;
19903;SDS011;10114;50.970;4.962;2023-05-31T08:59:56;16.20;;;5.90;;
19903;SDS011;10114;50.970;4.962;2023-05-31T09:02:23;10.68;;;5.78;;
19903;SDS011;10114;50.970;4.962;2023-05-31T09:04:50;13.27;;;5.95;;
19903;SDS011;10114;50.970;4.962;2023-05-31T09:07:17;16.33;;;6.18;;
19903;SDS011;10114;50.970;4.962;2023-05-31T09:09:43;18.30;;;5.68;;
19903;SDS011;10114;50.970;4.962;2023-05-31T09:12:09;13.70;;;5.82;;
19903;SDS011;10114;50.970;4.962;2023-05-31T09:14:35;12.55;;;5.95;;
19903;SDS011;10114;50.970;4.962;2023-05-31T09:17:02;15.45;;;5.78;;
19903;SDS011;10114;50.970;4.962;2023-05-31T09:19:29;11.40;;;5.47;;
19903;SDS011;10114;50.970;4.962;2023-05-31T09:21:55;15.60;;;5.20;;
19903;SDS011;10114;50.970;4.962;2023-05-31T09:24:21;11.73;;;5.55;;
19903;SDS011;10114;50.970;4.962;2023-05-31T09:26:51;12.23;;;5.30;;
19903;SDS011;10114;50.970;4.962;2023-05-31T09:29:18;12.80;;;5.22;;
19903;SDS011;10114;50.970;4.962;2023-05-31T09:31:46;12.25;;;5.45;;
19903;SDS011;10114;50.970;4.962;2023-05-31T09:34:24;12.35;;;5.03;;
19903;SDS011;10114;50.970;4.962;2023-05-31T09:36:59;10.82;;;5.10;;
19903;SDS011;10114;50.970;4.962;2023-05-31T09:39:25;13.23;;;5.45;;
19903;SDS011;10114;50.970;4.962;2023-05-31T09:41:52;10.27;;;5.22;;
19903;SDS011;10114;50.970;4.962;2023-05-31T09:44:18;11.52;;;4.63;;
19903;SDS011;10114;50.970;4.962;2023-05-31T09:46:45;11.82;;;4.95;;
19903;SDS011;10114;50.970;4.962;2023-05-31T09:49:14;13.20;;;5.43;;
19903;SDS011;10114;50.970;4.962;2023-05-31T09:51:40;13.13;;;4.78;;
19903;SDS011;10114;50.970;4.962;2023-05-31T09:54:15;17.83;;;4.18;;
19903;SDS011;10114;50.970;4.962;2023-05-31T09:56:42;15.40;;;4.93;;
19903;SDS011;10114;50.970;4.962;2023-05-31T09:59:09;12.85;;;4.70;;
19903;SDS011;10114;50.970;4.962;2023-05-31T10:01:35;11.75;;;4.75;;
19903;SDS011;10114;50.970;4.962;2023-05-31T10:04:02;18.52;;;4.45;;
19903;SDS011;10114;50.970;4.962;2023-05-31T10:06:29;12.23;;;3.60;;
19903;SDS011;10114;50.970;4.962;2023-05-31T10:09:00;15.75;;;3.78;;
19903;SDS011;10114;50.970;4.962;2023-05-31T10:11:26;8.77;;;4.13;;
19903;SDS011;10114;50.970;4.962;2023-05-31T10:13:59;14.13;;;4.60;;
19903;SDS011;10114;50.970;4.962;2023-05-31T10:16:38;10.73;;;3.80;;
19903;SDS011;10114;50.970;4.962;2023-05-31T10:19:09;10.10;;;3.75;;
19903;SDS011;10114;50.970;4.962;2023-05-31T10:21:37;10.35;;;3.67;;
19903;SDS011;10114;50.970;4.962;2023-05-31T10:24:07;11.48;;;3.58;;
19903;SDS011;10114;50.970;4.962;2023-05-31T10:26:41;12.00;;;4.60;;
19903;SDS011;10114;50.970;4.962;2023-05-31T10:31:39;11.50;;;3.30;;
19903;SDS011;10114;50.970;4.962;2023-05-31T10:34:14;11.20;;;3.78;;
19903;SDS011;10114;50.970;4.962;2023-05-31T10:36:41;9.38;;;3.17;;
19903;SDS011;10114;50.970;4.962;2023-05-31T10:39:13;9.68;;;2.83;;
19903;SDS011;10114;50.970;4.962;2023-05-31T10:41:42;10.75;;;2.58;;
19903;SDS011;10114;50.970;4.962;2023-05-31T10:44:12;9.38;;;3.20;;
19903;SDS011;10114;50.970;4.962;2023-05-31T10:46:39;10.82;;;2.70;;
19903;SDS011;10114;50.970;4.962;2023-05-31T10:49:07;10.60;;;2.97;;
19903;SDS011;10114;50.970;4.962;2023-05-31T10:51:38;11.82;;;2.75;;
19903;SDS011;10114;50.970;4.962;2023-05-31T10:54:05;8.52;;;2.38;;
19903;SDS011;10114;50.970;4.962;2023-05-31T10:56:31;6.85;;;2.47;;
19903;SDS011;10114;50.970;4.962;2023-05-31T10:58:57;10.90;;;2.35;;
19903;SDS011;10114;50.970;4.962;2023-05-31T11:01:23;7.00;;;2.17;;
19903;SDS011;10114;50.970;4.962;2023-05-31T11:03:54;9.85;;;2.83;;
19903;SDS011;10114;50.970;4.962;2023-05-31T11:06:26;8.25;;;2.45;;
19903;SDS011;10114;50.970;4.962;2023-05-31T11:13:55;7.72;;;2.50;;
19903;SDS011;10114;50.970;4.962;2023-05-31T11:16:22;8.57;;;2.60;;
19903;SDS011;10114;50.970;4.962;2023-05-31T11:18:48;6.68;;;2.70;;
19903;SDS011;10114;50.970;4.962;2023-05-31T11:27:02;9.20;;;2.45;;
19903;SDS011;10114;50.970;4.962;2023-05-31T11:32:13;8.40;;;2.50;;
19903;SDS011;10114;50.970;4.962;2023-05-31T11:34:56;12.82;;;2.90;;
19903;SDS011;10114;50.970;4.962;2023-05-31T11:37:22;9.52;;;2.80;;
19903;SDS011;10114;50.970;4.962;2023-05-31T11:39:49;9.63;;;3.38;;
19903;SDS011;10114;50.970;4.962;2023-05-31T11:42:15;7.38;;;2.63;;
19903;SDS011;10114;50.970;4.962;2023-05-31T11:44:42;12.48;;;3.35;;
19903;SDS011;10114;50.970;4.962;2023-05-31T11:47:21;10.00;;;3.03;;
19903;SDS011;10114;50.970;4.962;2023-05-31T11:49:50;7.93;;;2.72;;
19903;SDS011;10114;50.970;4.962;2023-05-31T11:52:17;12.82;;;3.30;;
19903;SDS011;10114;50.970;4.962;2023-05-31T11:54:43;9.05;;;2.63;;
19903;SDS011;10114;50.970;4.962;2023-05-31T11:57:10;8.02;;;2.40;;
19903;SDS011;10114;50.970;4.962;2023-05-31T11:59:37;10.68;;;3.00;;
19903;SDS011;10114;50.970;4.962;2023-05-31T12:02:04;7.63;;;2.63;;
19903;SDS011;10114;50.970;4.962;2023-05-31T12:04:31;11.10;;;2.47;;
19903;SDS011;10114;50.970;4.962;2023-05-31T12:06:58;7.50;;;2.25;;
19903;SDS011;10114;50.970;4.962;2023-05-31T12:09:25;8.35;;;2.30;;
19903;SDS011;10114;50.970;4.962;2023-05-31T12:11:51;9.13;;;2.45;;
19903;SDS011;10114;50.970;4.962;2023-05-31T12:14:18;7.93;;;2.55;;
19903;SDS011;10114;50.970;4.962;2023-05-31T12:16:45;5.85;;;2.22;;
19903;SDS011;10114;50.970;4.962;2023-05-31T12:19:14;8.32;;;3.03;;
19903;SDS011;10114;50.970;4.962;2023-05-31T12:21:40;10.35;;;3.08;;
19903;SDS011;10114;50.970;4.962;2023-05-31T12:24:13;7.82;;;2.83;;
19903;SDS011;10114;50.970;4.962;2023-05-31T12:26:40;12.10;;;3.13;;
19903;SDS011;10114;50.970;4.962;2023-05-31T12:29:08;8.23;;;2.72;;
19903;SDS011;10114;50.970;4.962;2023-05-31T12:31:35;10.50;;;3.10;;
19903;SDS011;10114;50.970;4.962;2023-05-31T12:36:37;9.93;;;2.85;;
19903;SDS011;10114;50.970;4.962;2023-05-31T12:39:07;8.10;;;2.53;;
19903;SDS011;10114;50.970;4.962;2023-05-31T12:41:34;7.00;;;2.67;;
19903;SDS011;10114;50.970;4.962;2023-05-31T12:44:01;6.53;;;2.20;;
19903;SDS011;10114;50.970;4.962;2023-05-31T12:46:27;7.65;;;2.58;;
19903;SDS011;10114;50.970;4.962;2023-05-31T12:48:53;7.35;;;2.47;;
19903;SDS011;10114;50.970;4.962;2023-05-31T12:51:19;8.50;;;2.47;;
19903;SDS011;10114;50.970;4.962;2023-05-31T12:53:46;11.38;;;2.42;;
19903;SDS011;10114;50.970;4.962;2023-05-31T12:56:12;13.70;;;2.58;;
19903;SDS011;10114;50.970;4.962;2023-05-31T12:58:38;12.40;;;2.83;;
19903;SDS011;10114;50.970;4.962;2023-05-31T13:01:04;9.65;;;2.92;;
19903;SDS011;10114;50.970;4.962;2023-05-31T13:03:32;8.48;;;2.58;;
19903;SDS011;10114;50.970;4.962;2023-05-31T13:05:58;10.43;;;2.45;;
19903;SDS011;10114;50.970;4.962;2023-05-31T13:08:24;10.30;;;2.60;;
19903;SDS011;10114;50.970;4.962;2023-05-31T13:10:50;11.02;;;3.00;;
19903;SDS011;10114;50.970;4.962;2023-05-31T13:13:16;7.00;;;2.58;;
19903;SDS011;10114;50.970;4.962;2023-05-31T13:15:42;7.90;;;2.70;;
19903;SDS011;10114;50.970;4.962;2023-05-31T13:18:08;8.77;;;2.25;;
19903;SDS011;10114;50.970;4.962;2023-05-31T13:20:34;8.15;;;3.20;;
19903;SDS011;10114;50.970;4.962;2023-05-31T13:23:00;6.50;;;2.00;;
19903;SDS011;10114;50.970;4.962;2023-05-31T13:25:26;8.32;;;2.20;;
19903;SDS011;10114;50.970;4.962;2023-05-31T13:27:52;6.90;;;2.20;;
19903;SDS011;10114;50.970;4.962;2023-05-31T13:30:19;13.27;;;2.55;;
19903;SDS011;10114;50.970;4.962;2023-05-31T13:32:45;7.50;;;2.78;;
19903;SDS011;10114;50.970;4.962;2023-05-31T13:35:11;13.00;;;2.40;;
19903;SDS011;10114;50.970;4.962;2023-05-31T13:37:38;7.55;;;2.17;;
19903;SDS011;10114;50.970;4.962;2023-05-31T13:40:05;10.80;;;2.25;;
19903;SDS011;10114;50.970;4.962;2023-05-31T13:42:31;7.45;;;2.22;;
19903;SDS011;10114;50.970;4.962;2023-05-31T13:44:57;11.65;;;2.50;;
19903;SDS011;10114;50.970;4.962;2023-05-31T13:47:23;8.95;;;2.03;;
19903;SDS011;10114;50.970;4.962;2023-05-31T13:49:49;10.88;;;2.67;;
19903;SDS011;10114;50.970;4.962;2023-05-31T13:52:15;7.60;;;2.60;;
19903;SDS011;10114;50.970;4.962;2023-05-31T13:54:41;6.10;;;1.92;;
19903;SDS011;10114;50.970;4.962;2023-05-31T13:57:07;7.70;;;2.20;;
19903;SDS011;10114;50.970;4.962;2023-05-31T13:59:33;14.43;;;2.83;;
19903;SDS011;10114;50.970;4.962;2023-05-31T14:01:59;8.40;;;2.20;;
19903;SDS011;10114;50.970;4.962;2023-05-31T14:04:25;5.45;;;2.08;;
19903;SDS011;10114;50.970;4.962;2023-05-31T14:06:51;9.50;;;2.08;;
19903;SDS011;10114;50.970;4.962;2023-05-31T14:09:18;8.52;;;2.20;;
19903;SDS011;10114;50.970;4.962;2023-05-31T14:11:44;10.43;;;2.30;;
19903;SDS011;10114;50.970;4.962;2023-05-31T14:14:11;5.57;;;2.22;;
19903;SDS011;10114;50.970;4.962;2023-05-31T14:16:37;11.18;;;2.58;;
19903;SDS011;10114;50.970;4.962;2023-05-31T14:19:03;7.38;;;2.20;;
19903;SDS011;10114;50.970;4.962;2023-05-31T14:21:29;10.43;;;2.58;;
19903;SDS011;10114;50.970;4.962;2023-05-31T14:23:57;9.02;;;2.35;;
19903;SDS011;10114;50.970;4.962;2023-05-31T14:26:23;7.63;;;2.25;;
19903;SDS011;10114;50.970;4.962;2023-05-31T14:28:49;6.90;;;2.15;;
19903;SDS011;10114;50.970;4.962;2023-05-31T14:31:15;8.20;;;2.45;;
19903;SDS011;10114;50.970;4.962;2023-05-31T14:33:41;7.85;;;2.30;;
19903;SDS011;10114;50.970;4.962;2023-05-31T14:36:07;9.82;;;2.33;;
19903;SDS011;10114;50.970;4.962;2023-05-31T14:38:33;8.18;;;2.40;;
19903;SDS011;10114;50.970;4.962;2023-05-31T14:40:59;7.43;;;2.58;;
19903;SDS011;10114;50.970;4.962;2023-05-31T14:43:25;7.90;;;2.40;;
19903;SDS011;10114;50.970;4.962;2023-05-31T14:45:51;10.85;;;2.67;;
19903;SDS011;10114;50.970;4.962;2023-05-31T14:48:17;7.80;;;2.00;;
19903;SDS011;10114;50.970;4.962;2023-05-31T14:50:43;8.43;;;2.22;;
19903;SDS011;10114;50.970;4.962;2023-05-31T14:53:09;7.35;;;2.25;;
19903;SDS011;10114;50.970;4.962;2023-05-31T14:55:39;7.82;;;2.00;;
19903;SDS011;10114;50.970;4.962;2023-05-31T14:58:05;11.38;;;2.20;;